sensor_id;sensor_type;location;lat;lon;timestamp;temperature;humidity
36884;DHT22;22816;52.044;4.730;2023-02-15T00:01:41;5.50;99.90
36884;DHT22;22816;52.044;4.730;2023-02-15T00:04:08;5.50;99.90
36884;DHT22;22816;52.044;4.730;2023-02-15T00:06:34;5.40;99.90
36884;DHT22;22816;52.044;4.730;2023-02-15T00:09:00;5.40;99.90
36884;DHT22;22816;52.044;4.730;2023-02-15T00:11:26;5.40;99.90
36884;DHT22;22816;52.044;4.730;2023-02-15T00:14:19;5.40;99.90
36884;DHT22;22816;52.044;4.730;2023-02-15T00:16:46;5.40;99.90
36884;DHT22;22816;52.044;4.730;2023-02-15T00:19:13;5.40;99.90
36884;DHT22;22816;52.044;4.730;2023-02-15T00:21:40;5.30;99.90
36884;DHT22;22816;52.044;4.730;2023-02-15T00:24:08;5.40;99.90
36884;DHT22;22816;52.044;4.730;2023-02-15T00:26:34;5.30;99.90
36884;DHT22;22816;52.044;4.730;2023-02-15T00:29:00;5.30;99.90
36884;DHT22;22816;52.044;4.730;2023-02-15T00:31:30;5.30;99.90
36884;DHT22;22816;52.044;4.730;2023-02-15T00:34:04;5.30;99.90
36884;DHT22;22816;52.044;4.730;2023-02-15T00:36:30;5.30;99.90
36884;DHT22;22816;52.044;4.730;2023-02-15T00:38:56;5.20;99.90
36884;DHT22;22816;52.044;4.730;2023-02-15T00:41:22;5.20;99.90
36884;DHT22;22816;52.044;4.730;2023-02-15T00:43:47;5.30;99.90
36884;DHT22;22816;52.044;4.730;2023-02-15T00:46:13;5.30;99.90
36884;DHT22;22816;52.044;4.730;2023-02-15T00:48:39;5.20;99.90
36884;DHT22;22816;52.044;4.730;2023-02-15T00:51:05;5.30;99.90
36884;DHT22;22816;52.044;4.730;2023-02-15T00:53:31;5.30;99.90
36884;DHT22;22816;52.044;4.730;2023-02-15T00:55:57;5.40;99.90
36884;DHT22;22816;52.044;4.730;2023-02-15T00:58:23;5.40;99.90
36884;DHT22;22816;52.044;4.730;2023-02-15T01:00:50;5.40;99.90
36884;DHT22;22816;52.044;4.730;2023-02-15T01:03:17;5.40;99.90
36884;DHT22;22816;52.044;4.730;2023-02-15T01:05:43;5.40;99.90
36884;DHT22;22816;52.044;4.730;2023-02-15T01:08:09;5.40;99.90
36884;DHT22;22816;52.044;4.730;2023-02-15T01:10:35;5.40;99.90
36884;DHT22;22816;52.044;4.730;2023-02-15T01:13:01;5.40;99.90
36884;DHT22;22816;52.044;4.730;2023-02-15T01:15:27;5.30;99.90
36884;DHT22;22816;52.044;4.730;2023-02-15T01:17:53;5.30;99.90
36884;DHT22;22816;52.044;4.730;2023-02-15T01:20:25;5.30;99.90
36884;DHT22;22816;52.044;4.730;2023-02-15T01:22:53;5.30;99.90
36884;DHT22;22816;52.044;4.730;2023-02-15T01:25:21;5.20;99.90
36884;DHT22;22816;52.044;4.730;2023-02-15T01:27:47;5.20;99.90
36884;DHT22;22816;52.044;4.730;2023-02-15T01:30:14;5.30;99.90
36884;DHT22;22816;52.044;4.730;2023-02-15T01:32:41;5.20;99.90
36884;DHT22;22816;52.044;4.730;2023-02-15T01:35:07;5.20;99.90
36884;DHT22;22816;52.044;4.730;2023-02-15T01:37:34;5.20;99.90
36884;DHT22;22816;52.044;4.730;2023-02-15T01:40:00;5.20;99.90
36884;DHT22;22816;52.044;4.730;2023-02-15T01:42:28;5.10;99.90
36884;DHT22;22816;52.044;4.730;2023-02-15T01:45:00;5.10;99.90
36884;DHT22;22816;52.044;4.730;2023-02-15T01:48:27;5.00;99.90
36884;DHT22;22816;52.044;4.730;2023-02-15T01:50:56;5.00;99.90
36884;DHT22;22816;52.044;4.730;2023-02-15T01:53:47;4.90;99.90
36884;DHT22;22816;52.044;4.730;2023-02-15T01:56:18;4.90;99.90
36884;DHT22;22816;52.044;4.730;2023-02-15T01:58:45;4.90;99.90
36884;DHT22;22816;52.044;4.730;2023-02-15T02:01:13;4.90;99.90
36884;DHT22;22816;52.044;4.730;2023-02-15T02:07:46;4.90;99.90
36884;DHT22;22816;52.044;4.730;2023-02-15T02:10:15;4.80;99.90
36884;DHT22;22816;52.044;4.730;2023-02-15T02:12:43;4.80;99.90
36884;DHT22;22816;52.044;4.730;2023-02-15T02:15:11;4.70;99.90
36884;DHT22;22816;52.044;4.730;2023-02-15T02:18:03;4.70;99.90
36884;DHT22;22816;52.044;4.730;2023-02-15T02:22:17;4.60;99.90
36884;DHT22;22816;52.044;4.730;2023-02-15T02:25:48;4.70;99.90
36884;DHT22;22816;52.044;4.730;2023-02-15T02:30:02;4.60;99.90
36884;DHT22;22816;52.044;4.730;2023-02-15T02:32:53;4.60;99.90
36884;DHT22;22816;52.044;4.730;2023-02-15T02:35:44;4.60;99.90
36884;DHT22;22816;52.044;4.730;2023-02-15T02:42:48;4.70;99.90
36884;DHT22;22816;52.044;4.730;2023-02-15T02:46:21;4.60;99.90
36884;DHT22;22816;52.044;4.730;2023-02-15T02:48:49;4.60;99.90
36884;DHT22;22816;52.044;4.730;2023-02-15T02:51:15;4.60;99.90
36884;DHT22;22816;52.044;4.730;2023-02-15T02:53:49;4.60;99.90
36884;DHT22;22816;52.044;4.730;2023-02-15T02:57:03;4.70;99.90
36884;DHT22;22816;52.044;4.730;2023-02-15T02:59:33;4.70;99.90
36884;DHT22;22816;52.044;4.730;2023-02-15T03:02:07;4.60;99.90
36884;DHT22;22816;52.044;4.730;2023-02-15T03:04:40;4.50;99.90
36884;DHT22;22816;52.044;4.730;2023-02-15T03:07:18;4.50;99.90
36884;DHT22;22816;52.044;4.730;2023-02-15T03:09:51;4.60;99.90
36884;DHT22;22816;52.044;4.730;2023-02-15T03:12:31;4.70;99.90
36884;DHT22;22816;52.044;4.730;2023-02-15T03:15:06;4.70;99.90
36884;DHT22;22816;52.044;4.730;2023-02-15T03:17:35;4.70;99.90
36884;DHT22;22816;52.044;4.730;2023-02-15T03:20:14;4.70;99.90
36884;DHT22;22816;52.044;4.730;2023-02-15T03:22:53;4.70;99.90
36884;DHT22;22816;52.044;4.730;2023-02-15T03:25:23;4.70;99.90
36884;DHT22;22816;52.044;4.730;2023-02-15T03:28:02;4.70;99.90
36884;DHT22;22816;52.044;4.730;2023-02-15T03:30:29;4.70;99.90
36884;DHT22;22816;52.044;4.730;2023-02-15T03:32:59;4.70;99.90
36884;DHT22;22816;52.044;4.730;2023-02-15T03:35:30;4.70;99.90
36884;DHT22;22816;52.044;4.730;2023-02-15T03:38:00;4.60;99.90
36884;DHT22;22816;52.044;4.730;2023-02-15T03:40:37;4.60;99.90
36884;DHT22;22816;52.044;4.730;2023-02-15T03:43:51;4.50;99.90
36884;DHT22;22816;52.044;4.730;2023-02-15T03:46:47;4.50;99.90
36884;DHT22;22816;52.044;4.730;2023-02-15T03:49:24;4.50;99.90
36884;DHT22;22816;52.044;4.730;2023-02-15T03:51:54;4.50;99.90
36884;DHT22;22816;52.044;4.730;2023-02-15T03:54:30;4.40;99.90
36884;DHT22;22816;52.044;4.730;2023-02-15T03:57:22;4.40;99.90
36884;DHT22;22816;52.044;4.730;2023-02-15T04:00:19;4.50;99.90
36884;DHT22;22816;52.044;4.730;2023-02-15T04:03:26;4.40;99.90
36884;DHT22;22816;52.044;4.730;2023-02-15T04:05:54;4.40;99.90
36884;DHT22;22816;52.044;4.730;2023-02-15T04:08:20;4.40;99.90
36884;DHT22;22816;52.044;4.730;2023-02-15T04:13:18;4.40;99.90
36884;DHT22;22816;52.044;4.730;2023-02-15T04:15:43;4.40;99.90
36884;DHT22;22816;52.044;4.730;2023-02-15T04:18:29;4.40;99.90
36884;DHT22;22816;52.044;4.730;2023-02-15T04:21:13;4.40;99.90
36884;DHT22;22816;52.044;4.730;2023-02-15T04:23:57;4.40;99.90
36884;DHT22;22816;52.044;4.730;2023-02-15T04:26:41;4.30;99.90
36884;DHT22;22816;52.044;4.730;2023-02-15T04:29:07;4.30;99.90
36884;DHT22;22816;52.044;4.730;2023-02-15T04:31:33;4.40;99.90
36884;DHT22;22816;52.044;4.730;2023-02-15T04:33:58;4.40;99.90
36884;DHT22;22816;52.044;4.730;2023-02-15T04:36:24;4.30;99.90
36884;DHT22;22816;52.044;4.730;2023-02-15T04:38:50;4.40;99.90
36884;DHT22;22816;52.044;4.730;2023-02-15T04:41:16;4.30;99.90
36884;DHT22;22816;52.044;4.730;2023-02-15T04:43:41;4.30;99.90
36884;DHT22;22816;52.044;4.730;2023-02-15T04:46:07;4.30;99.90
36884;DHT22;22816;52.044;4.730;2023-02-15T04:48:33;4.30;99.90
36884;DHT22;22816;52.044;4.730;2023-02-15T04:50:59;4.30;99.90
36884;DHT22;22816;52.044;4.730;2023-02-15T04:53:25;4.30;99.90
36884;DHT22;22816;52.044;4.730;2023-02-15T04:55:50;4.30;99.90
36884;DHT22;22816;52.044;4.730;2023-02-15T04:58:16;4.30;99.90
36884;DHT22;22816;52.044;4.730;2023-02-15T05:00:42;4.20;99.90
36884;DHT22;22816;52.044;4.730;2023-02-15T05:03:08;3.90;99.90
36884;DHT22;22816;52.044;4.730;2023-02-15T05:05:33;3.90;99.90
36884;DHT22;22816;52.044;4.730;2023-02-15T05:07:59;3.90;99.90
36884;DHT22;22816;52.044;4.730;2023-02-15T05:10:25;3.80;99.90
36884;DHT22;22816;52.044;4.730;2023-02-15T05:12:51;3.90;99.90
36884;DHT22;22816;52.044;4.730;2023-02-15T05:15:17;3.70;99.90
36884;DHT22;22816;52.044;4.730;2023-02-15T05:17:43;3.70;99.90
36884;DHT22;22816;52.044;4.730;2023-02-15T05:20:09;3.60;99.90
36884;DHT22;22816;52.044;4.730;2023-02-15T05:22:35;3.50;99.90
36884;DHT22;22816;52.044;4.730;2023-02-15T05:25:01;3.40;99.90
36884;DHT22;22816;52.044;4.730;2023-02-15T05:27:45;3.40;99.90
36884;DHT22;22816;52.044;4.730;2023-02-15T05:30:29;3.40;99.90
36884;DHT22;22816;52.044;4.730;2023-02-15T05:32:55;3.30;99.90
36884;DHT22;22816;52.044;4.730;2023-02-15T05:35:21;3.40;99.90
36884;DHT22;22816;52.044;4.730;2023-02-15T05:37:46;3.30;99.90
36884;DHT22;22816;52.044;4.730;2023-02-15T05:40:12;3.50;99.90
36884;DHT22;22816;52.044;4.730;2023-02-15T05:42:38;3.50;99.90
36884;DHT22;22816;52.044;4.730;2023-02-15T05:45:04;3.70;99.90
36884;DHT22;22816;52.044;4.730;2023-02-15T05:47:31;3.70;99.90
36884;DHT22;22816;52.044;4.730;2023-02-15T05:49:56;3.60;99.90
36884;DHT22;22816;52.044;4.730;2023-02-15T05:52:22;3.30;99.90
36884;DHT22;22816;52.044;4.730;2023-02-15T05:54:48;3.20;99.90
36884;DHT22;22816;52.044;4.730;2023-02-15T05:57:14;3.20;99.90
36884;DHT22;22816;52.044;4.730;2023-02-15T05:59:39;3.20;99.90
36884;DHT22;22816;52.044;4.730;2023-02-15T06:02:05;3.10;99.90
36884;DHT22;22816;52.044;4.730;2023-02-15T06:04:32;3.20;99.90
36884;DHT22;22816;52.044;4.730;2023-02-15T06:06:57;3.00;99.90
36884;DHT22;22816;52.044;4.730;2023-02-15T06:09:23;3.00;99.90
36884;DHT22;22816;52.044;4.730;2023-02-15T06:11:49;3.00;99.90
36884;DHT22;22816;52.044;4.730;2023-02-15T06:14:15;3.10;99.90
36884;DHT22;22816;52.044;4.730;2023-02-15T06:16:41;3.00;99.90
36884;DHT22;22816;52.044;4.730;2023-02-15T06:19:07;3.10;99.90
36884;DHT22;22816;52.044;4.730;2023-02-15T06:21:32;3.00;99.90
36884;DHT22;22816;52.044;4.730;2023-02-15T06:23:58;3.00;99.90
36884;DHT22;22816;52.044;4.730;2023-02-15T06:26:24;3.00;99.90
36884;DHT22;22816;52.044;4.730;2023-02-15T06:28:50;3.10;99.90
36884;DHT22;22816;52.044;4.730;2023-02-15T06:31:16;3.00;99.90
36884;DHT22;22816;52.044;4.730;2023-02-15T06:33:41;3.00;99.90
36884;DHT22;22816;52.044;4.730;2023-02-15T06:36:07;3.00;99.90
36884;DHT22;22816;52.044;4.730;2023-02-15T06:38:33;2.90;99.90
36884;DHT22;22816;52.044;4.730;2023-02-15T06:40:59;2.90;99.90
36884;DHT22;22816;52.044;4.730;2023-02-15T06:43:25;2.70;99.90
36884;DHT22;22816;52.044;4.730;2023-02-15T06:45:51;2.80;99.90
36884;DHT22;22816;52.044;4.730;2023-02-15T06:48:16;2.90;99.90
36884;DHT22;22816;52.044;4.730;2023-02-15T06:50:42;2.80;99.90
36884;DHT22;22816;52.044;4.730;2023-02-15T06:53:08;2.90;99.90
36884;DHT22;22816;52.044;4.730;2023-02-15T06:55:34;2.90;99.90
36884;DHT22;22816;52.044;4.730;2023-02-15T06:58:00;2.90;99.90
36884;DHT22;22816;52.044;4.730;2023-02-15T07:00:25;3.00;99.90
36884;DHT22;22816;52.044;4.730;2023-02-15T07:02:55;2.80;99.90
36884;DHT22;22816;52.044;4.730;2023-02-15T07:05:22;2.80;99.90
36884;DHT22;22816;52.044;4.730;2023-02-15T07:07:47;2.80;99.90
36884;DHT22;22816;52.044;4.730;2023-02-15T07:10:13;2.80;99.90
36884;DHT22;22816;52.044;4.730;2023-02-15T07:12:39;2.70;99.90
36884;DHT22;22816;52.044;4.730;2023-02-15T07:15:09;2.80;99.90
36884;DHT22;22816;52.044;4.730;2023-02-15T07:17:36;2.80;99.90
36884;DHT22;22816;52.044;4.730;2023-02-15T07:20:10;2.80;99.90
36884;DHT22;22816;52.044;4.730;2023-02-15T07:22:36;2.80;99.90
36884;DHT22;22816;52.044;4.730;2023-02-15T07:25:07;2.70;99.90
36884;DHT22;22816;52.044;4.730;2023-02-15T07:27:33;2.70;99.90
36884;DHT22;22816;52.044;4.730;2023-02-15T07:30:00;2.70;99.90
36884;DHT22;22816;52.044;4.730;2023-02-15T07:32:31;2.80;99.90
36884;DHT22;22816;52.044;4.730;2023-02-15T07:34:57;2.80;99.90
36884;DHT22;22816;52.044;4.730;2023-02-15T07:37:24;2.70;99.90
36884;DHT22;22816;52.044;4.730;2023-02-15T07:39:50;2.60;99.90
36884;DHT22;22816;52.044;4.730;2023-02-15T07:42:15;2.60;99.90
36884;DHT22;22816;52.044;4.730;2023-02-15T07:44:41;2.60;99.90
36884;DHT22;22816;52.044;4.730;2023-02-15T07:47:07;2.60;99.90
36884;DHT22;22816;52.044;4.730;2023-02-15T07:49:33;2.60;99.90
36884;DHT22;22816;52.044;4.730;2023-02-15T07:52:00;2.70;99.90
36884;DHT22;22816;52.044;4.730;2023-02-15T07:54:27;2.70;99.90
36884;DHT22;22816;52.044;4.730;2023-02-15T07:56:52;2.70;99.90
36884;DHT22;22816;52.044;4.730;2023-02-15T07:59:18;2.70;99.90
36884;DHT22;22816;52.044;4.730;2023-02-15T08:01:44;2.80;99.90
36884;DHT22;22816;52.044;4.730;2023-02-15T08:04:10;2.90;99.90
36884;DHT22;22816;52.044;4.730;2023-02-15T08:06:36;2.90;99.90
36884;DHT22;22816;52.044;4.730;2023-02-15T08:09:05;3.20;99.90
36884;DHT22;22816;52.044;4.730;2023-02-15T08:11:36;3.60;99.90
36884;DHT22;22816;52.044;4.730;2023-02-15T08:14:13;4.00;99.90
36884;DHT22;22816;52.044;4.730;2023-02-15T08:16:51;4.40;99.90
36884;DHT22;22816;52.044;4.730;2023-02-15T08:19:20;4.70;99.90
36884;DHT22;22816;52.044;4.730;2023-02-15T08:22:00;4.70;99.90
36884;DHT22;22816;52.044;4.730;2023-02-15T08:24:29;5.10;99.90
36884;DHT22;22816;52.044;4.730;2023-02-15T08:26:55;5.20;99.90
36884;DHT22;22816;52.044;4.730;2023-02-15T08:29:23;5.50;99.90
36884;DHT22;22816;52.044;4.730;2023-02-15T08:31:52;5.30;99.90
36884;DHT22;22816;52.044;4.730;2023-02-15T08:34:19;5.50;99.90
36884;DHT22;22816;52.044;4.730;2023-02-15T08:36:45;5.60;99.90
36884;DHT22;22816;52.044;4.730;2023-02-15T08:39:11;5.90;99.90
36884;DHT22;22816;52.044;4.730;2023-02-15T08:41:39;5.90;99.90
36884;DHT22;22816;52.044;4.730;2023-02-15T08:44:07;5.90;99.90
36884;DHT22;22816;52.044;4.730;2023-02-15T08:46:39;5.80;99.90
36884;DHT22;22816;52.044;4.730;2023-02-15T08:49:05;6.20;99.90
36884;DHT22;22816;52.044;4.730;2023-02-15T08:51:33;6.20;99.90
36884;DHT22;22816;52.044;4.730;2023-02-15T08:54:04;6.10;99.90
36884;DHT22;22816;52.044;4.730;2023-02-15T08:56:36;6.10;99.90
36884;DHT22;22816;52.044;4.730;2023-02-15T08:59:03;6.70;99.90
36884;DHT22;22816;52.044;4.730;2023-02-15T09:01:31;6.40;99.90
36884;DHT22;22816;52.044;4.730;2023-02-15T09:04:03;6.80;99.90
36884;DHT22;22816;52.044;4.730;2023-02-15T09:06:36;6.50;99.90
36884;DHT22;22816;52.044;4.730;2023-02-15T09:09:03;6.60;99.90
36884;DHT22;22816;52.044;4.730;2023-02-15T09:11:32;6.70;99.90
36884;DHT22;22816;52.044;4.730;2023-02-15T09:14:04;6.50;99.90
36884;DHT22;22816;52.044;4.730;2023-02-15T09:16:33;6.40;99.90
36884;DHT22;22816;52.044;4.730;2023-02-15T09:18:59;7.30;99.90
36884;DHT22;22816;52.044;4.730;2023-02-15T09:21:31;8.10;99.90
36884;DHT22;22816;52.044;4.730;2023-02-15T09:23:59;8.50;99.90
36884;DHT22;22816;52.044;4.730;2023-02-15T09:26:27;9.50;99.90
36884;DHT22;22816;52.044;4.730;2023-02-15T09:28:56;9.30;99.90
36884;DHT22;22816;52.044;4.730;2023-02-15T09:31:25;9.20;99.90
36884;DHT22;22816;52.044;4.730;2023-02-15T09:33:52;9.30;99.90
36884;DHT22;22816;52.044;4.730;2023-02-15T09:36:20;9.70;99.90
36884;DHT22;22816;52.044;4.730;2023-02-15T09:39:13;9.60;99.90
36884;DHT22;22816;52.044;4.730;2023-02-15T09:43:43;9.60;99.90
36884;DHT22;22816;52.044;4.730;2023-02-15T09:46:38;9.80;99.90
36884;DHT22;22816;52.044;4.730;2023-02-15T09:59:44;10.00;99.90
36884;DHT22;22816;52.044;4.730;2023-02-15T10:02:44;12.60;99.90
36884;DHT22;22816;52.044;4.730;2023-02-15T10:06:56;12.50;99.90
36884;DHT22;22816;52.044;4.730;2023-02-15T10:09:41;14.10;99.90
36884;DHT22;22816;52.044;4.730;2023-02-15T10:13:33;13.10;99.90
36884;DHT22;22816;52.044;4.730;2023-02-15T10:16:24;12.30;99.90
36884;DHT22;22816;52.044;4.730;2023-02-15T10:19:20;12.30;99.90
36884;DHT22;22816;52.044;4.730;2023-02-15T10:27:45;12.50;99.90
36884;DHT22;22816;52.044;4.730;2023-02-15T10:34:55;13.70;99.90
36884;DHT22;22816;52.044;4.730;2023-02-15T10:46:55;13.20;99.90
36884;DHT22;22816;52.044;4.730;2023-02-15T11:00:44;12.60;99.90
36884;DHT22;22816;52.044;4.730;2023-02-15T11:04:17;14.60;99.90
36884;DHT22;22816;52.044;4.730;2023-02-15T11:06:53;15.00;99.90
36884;DHT22;22816;52.044;4.730;2023-02-15T11:09:22;15.20;99.90
36884;DHT22;22816;52.044;4.730;2023-02-15T11:11:53;15.80;99.90
36884;DHT22;22816;52.044;4.730;2023-02-15T11:14:27;15.20;99.90
36884;DHT22;22816;52.044;4.730;2023-02-15T11:17:05;15.00;99.90
36884;DHT22;22816;52.044;4.730;2023-02-15T11:19:35;15.50;99.90
36884;DHT22;22816;52.044;4.730;2023-02-15T11:22:05;16.30;99.90
36884;DHT22;22816;52.044;4.730;2023-02-15T11:24:41;15.40;99.90
36884;DHT22;22816;52.044;4.730;2023-02-15T11:27:25;15.00;99.90
36884;DHT22;22816;52.044;4.730;2023-02-15T11:30:10;15.10;99.90
36884;DHT22;22816;52.044;4.730;2023-02-15T11:32:44;14.90;99.90
36884;DHT22;22816;52.044;4.730;2023-02-15T11:35:37;14.80;99.90
36884;DHT22;22816;52.044;4.730;2023-02-15T11:38:19;14.30;99.90
36884;DHT22;22816;52.044;4.730;2023-02-15T11:40:53;13.90;99.90
36884;DHT22;22816;52.044;4.730;2023-02-15T11:44:32;13.70;99.90
36884;DHT22;22816;52.044;4.730;2023-02-15T11:46:59;12.80;99.90
36884;DHT22;22816;52.044;4.730;2023-02-15T11:49:34;12.80;99.90
36884;DHT22;22816;52.044;4.730;2023-02-15T11:52:10;13.10;99.90
36884;DHT22;22816;52.044;4.730;2023-02-15T11:54:44;12.80;99.90
36884;DHT22;22816;52.044;4.730;2023-02-15T11:57:25;12.70;99.90
36884;DHT22;22816;52.044;4.730;2023-02-15T12:00:39;12.80;99.90
36884;DHT22;22816;52.044;4.730;2023-02-15T12:03:24;13.00;99.90
36884;DHT22;22816;52.044;4.730;2023-02-15T12:06:00;13.10;99.90
36884;DHT22;22816;52.044;4.730;2023-02-15T12:08:37;13.80;99.90
36884;DHT22;22816;52.044;4.730;2023-02-15T12:11:09;14.20;99.90
36884;DHT22;22816;52.044;4.730;2023-02-15T12:14:00;14.30;99.90
36884;DHT22;22816;52.044;4.730;2023-02-15T12:16:28;13.90;99.90
36884;DHT22;22816;52.044;4.730;2023-02-15T12:19:01;13.70;99.90
36884;DHT22;22816;52.044;4.730;2023-02-15T12:21:39;13.90;99.90
36884;DHT22;22816;52.044;4.730;2023-02-15T12:24:49;14.40;99.90
36884;DHT22;22816;52.044;4.730;2023-02-15T12:27:26;14.70;99.90
36884;DHT22;22816;52.044;4.730;2023-02-15T12:30:04;16.20;99.90
36884;DHT22;22816;52.044;4.730;2023-02-15T12:32:46;16.90;99.90
36884;DHT22;22816;52.044;4.730;2023-02-15T12:35:27;17.40;99.90
36884;DHT22;22816;52.044;4.730;2023-02-15T12:37:56;18.70;99.90
36884;DHT22;22816;52.044;4.730;2023-02-15T12:40:28;19.00;99.90
36884;DHT22;22816;52.044;4.730;2023-02-15T12:42:54;18.60;99.90
36884;DHT22;22816;52.044;4.730;2023-02-15T12:45:29;18.40;99.90
36884;DHT22;22816;52.044;4.730;2023-02-15T12:48:16;17.60;99.90
36884;DHT22;22816;52.044;4.730;2023-02-15T12:50:51;17.00;99.90
36884;DHT22;22816;52.044;4.730;2023-02-15T12:53:50;15.90;99.90
36884;DHT22;22816;52.044;4.730;2023-02-15T12:56:26;15.30;99.90
36884;DHT22;22816;52.044;4.730;2023-02-15T12:59:05;14.80;99.90
36884;DHT22;22816;52.044;4.730;2023-02-15T13:01:32;14.60;99.90
36884;DHT22;22816;52.044;4.730;2023-02-15T13:04:04;14.20;99.90
36884;DHT22;22816;52.044;4.730;2023-02-15T13:06:33;14.30;99.90
36884;DHT22;22816;52.044;4.730;2023-02-15T13:09:16;14.30;99.90
36884;DHT22;22816;52.044;4.730;2023-02-15T13:11:44;14.00;99.90
36884;DHT22;22816;52.044;4.730;2023-02-15T13:14:31;13.80;99.90
36884;DHT22;22816;52.044;4.730;2023-02-15T13:17:00;13.90;99.90
36884;DHT22;22816;52.044;4.730;2023-02-15T13:19:42;13.90;99.90
36884;DHT22;22816;52.044;4.730;2023-02-15T13:22:16;14.30;99.90
36884;DHT22;22816;52.044;4.730;2023-02-15T13:24:50;14.10;99.90
36884;DHT22;22816;52.044;4.730;2023-02-15T13:27:20;13.90;99.90
36884;DHT22;22816;52.044;4.730;2023-02-15T13:29:51;13.40;99.90
36884;DHT22;22816;52.044;4.730;2023-02-15T13:35:06;13.70;99.90
36884;DHT22;22816;52.044;4.730;2023-02-15T13:38:16;13.40;99.90
36884;DHT22;22816;52.044;4.730;2023-02-15T13:40:55;13.20;99.90
36884;DHT22;22816;52.044;4.730;2023-02-15T13:43:35;13.10;99.90
36884;DHT22;22816;52.044;4.730;2023-02-15T13:46:32;13.40;99.90
36884;DHT22;22816;52.044;4.730;2023-02-15T13:54:08;12.90;99.90
36884;DHT22;22816;52.044;4.730;2023-02-15T13:57:09;12.90;99.90
36884;DHT22;22816;52.044;4.730;2023-02-15T14:10:38;12.80;99.90
36884;DHT22;22816;52.044;4.730;2023-02-15T14:15:49;12.30;99.90
36884;DHT22;22816;52.044;4.730;2023-02-15T14:18:29;12.40;99.90
36884;DHT22;22816;52.044;4.730;2023-02-15T14:21:27;12.50;99.90
36884;DHT22;22816;52.044;4.730;2023-02-15T14:28:34;12.80;99.90
36884;DHT22;22816;52.044;4.730;2023-02-15T14:31:04;13.00;99.90
36884;DHT22;22816;52.044;4.730;2023-02-15T14:33:40;13.00;99.90
36884;DHT22;22816;52.044;4.730;2023-02-15T14:36:13;12.80;99.90
36884;DHT22;22816;52.044;4.730;2023-02-15T14:39:09;12.80;99.90
36884;DHT22;22816;52.044;4.730;2023-02-15T14:43:49;12.70;99.90
36884;DHT22;22816;52.044;4.730;2023-02-15T14:50:47;12.20;99.90
36884;DHT22;22816;52.044;4.730;2023-02-15T14:53:55;12.10;99.90
36884;DHT22;22816;52.044;4.730;2023-02-15T14:56:23;12.00;99.90
36884;DHT22;22816;52.044;4.730;2023-02-15T14:59:11;12.00;99.90
36884;DHT22;22816;52.044;4.730;2023-02-15T15:01:38;12.10;99.90
36884;DHT22;22816;52.044;4.730;2023-02-15T15:04:13;11.80;99.90
36884;DHT22;22816;52.044;4.730;2023-02-15T15:06:43;11.80;99.90
36884;DHT22;22816;52.044;4.730;2023-02-15T15:09:26;11.70;99.90
36884;DHT22;22816;52.044;4.730;2023-02-15T15:11:54;11.60;99.90
36884;DHT22;22816;52.044;4.730;2023-02-15T15:14:38;11.50;99.90
36884;DHT22;22816;52.044;4.730;2023-02-15T15:17:05;11.60;99.90
36884;DHT22;22816;52.044;4.730;2023-02-15T15:22:17;11.50;99.90
36884;DHT22;22816;52.044;4.730;2023-02-15T15:24:48;11.60;99.90
36884;DHT22;22816;52.044;4.730;2023-02-15T15:27:37;11.50;99.90
36884;DHT22;22816;52.044;4.730;2023-02-15T15:30:46;11.40;99.90
36884;DHT22;22816;52.044;4.730;2023-02-15T15:37:58;11.30;99.90
36884;DHT22;22816;52.044;4.730;2023-02-15T15:47:18;11.10;99.90
36884;DHT22;22816;52.044;4.730;2023-02-15T15:49:47;11.10;99.90
36884;DHT22;22816;52.044;4.730;2023-02-15T15:52:16;11.10;99.90
36884;DHT22;22816;52.044;4.730;2023-02-15T15:54:42;11.10;99.90
36884;DHT22;22816;52.044;4.730;2023-02-15T15:58:10;11.00;99.90
36884;DHT22;22816;52.044;4.730;2023-02-15T16:01:03;10.90;99.90
36884;DHT22;22816;52.044;4.730;2023-02-15T16:03:32;10.80;99.90
36884;DHT22;22816;52.044;4.730;2023-02-15T16:05:58;10.80;99.90
36884;DHT22;22816;52.044;4.730;2023-02-15T16:08:46;10.80;99.90
36884;DHT22;22816;52.044;4.730;2023-02-15T16:11:26;10.70;99.90
36884;DHT22;22816;52.044;4.730;2023-02-15T16:13:55;10.60;99.90
36884;DHT22;22816;52.044;4.730;2023-02-15T16:16:26;10.60;99.90
36884;DHT22;22816;52.044;4.730;2023-02-15T16:18:56;10.60;99.90
36884;DHT22;22816;52.044;4.730;2023-02-15T16:21:31;10.50;99.90
36884;DHT22;22816;52.044;4.730;2023-02-15T16:24:38;10.40;99.90
36884;DHT22;22816;52.044;4.730;2023-02-15T16:27:40;10.40;99.90
36884;DHT22;22816;52.044;4.730;2023-02-15T16:31:13;10.40;99.90
36884;DHT22;22816;52.044;4.730;2023-02-15T16:33:41;10.30;99.90
36884;DHT22;22816;52.044;4.730;2023-02-15T16:36:22;10.30;99.90
36884;DHT22;22816;52.044;4.730;2023-02-15T16:39:10;10.20;99.90
36884;DHT22;22816;52.044;4.730;2023-02-15T16:41:42;10.10;99.90
36884;DHT22;22816;52.044;4.730;2023-02-15T16:44:20;10.00;99.90
36884;DHT22;22816;52.044;4.730;2023-02-15T16:46:51;9.80;99.90
36884;DHT22;22816;52.044;4.730;2023-02-15T16:49:22;9.80;99.90
36884;DHT22;22816;52.044;4.730;2023-02-15T16:52:03;9.90;99.90
36884;DHT22;22816;52.044;4.730;2023-02-15T16:54:32;10.00;99.90
36884;DHT22;22816;52.044;4.730;2023-02-15T16:56:58;9.90;99.90
36884;DHT22;22816;52.044;4.730;2023-02-15T16:59:39;9.90;99.90
36884;DHT22;22816;52.044;4.730;2023-02-15T17:03:02;9.90;99.90
36884;DHT22;22816;52.044;4.730;2023-02-15T17:05:53;9.90;99.90
36884;DHT22;22816;52.044;4.730;2023-02-15T17:08:33;9.90;99.90
36884;DHT22;22816;52.044;4.730;2023-02-15T17:11:09;9.80;99.90
36884;DHT22;22816;52.044;4.730;2023-02-15T17:13:36;9.80;99.90
36884;DHT22;22816;52.044;4.730;2023-02-15T17:16:27;9.60;99.90
36884;DHT22;22816;52.044;4.730;2023-02-15T17:18:54;9.50;99.90
36884;DHT22;22816;52.044;4.730;2023-02-15T17:21:38;9.50;99.90
36884;DHT22;22816;52.044;4.730;2023-02-15T17:24:05;9.50;99.90
36884;DHT22;22816;52.044;4.730;2023-02-15T17:26:34;9.60;99.90
36884;DHT22;22816;52.044;4.730;2023-02-15T17:30:00;9.50;99.90
36884;DHT22;22816;52.044;4.730;2023-02-15T17:32:30;9.50;99.90
36884;DHT22;22816;52.044;4.730;2023-02-15T17:35:19;9.50;99.90
36884;DHT22;22816;52.044;4.730;2023-02-15T17:37:48;9.50;99.90
36884;DHT22;22816;52.044;4.730;2023-02-15T17:40:23;9.50;99.90
36884;DHT22;22816;52.044;4.730;2023-02-15T17:42:50;9.50;99.90
36884;DHT22;22816;52.044;4.730;2023-02-15T17:45:16;9.40;99.90
36884;DHT22;22816;52.044;4.730;2023-02-15T17:47:43;9.30;99.90
36884;DHT22;22816;52.044;4.730;2023-02-15T17:50:22;9.20;99.90
36884;DHT22;22816;52.044;4.730;2023-02-15T17:52:49;9.20;99.90
36884;DHT22;22816;52.044;4.730;2023-02-15T17:55:18;9.10;99.90
36884;DHT22;22816;52.044;4.730;2023-02-15T17:58:08;9.00;99.90
36884;DHT22;22816;52.044;4.730;2023-02-15T18:00:41;9.00;99.90
36884;DHT22;22816;52.044;4.730;2023-02-15T18:03:36;9.00;99.90
36884;DHT22;22816;52.044;4.730;2023-02-15T18:06:22;9.10;99.90
36884;DHT22;22816;52.044;4.730;2023-02-15T18:09:09;9.00;99.90
36884;DHT22;22816;52.044;4.730;2023-02-15T18:11:54;9.10;99.90
36884;DHT22;22816;52.044;4.730;2023-02-15T18:14:20;9.10;99.90